Weather at Selkirk Airport

Public forecast

Using degrees Celsius for public forecast. Weather courtesy of forecast.io.

Closest aviation weather report (METAR) to Selkirk Airport

Closest report is John C. Munro Hamilton International Airport, 22.1 nm (40.9 km) N.

2024/05/24 01:00 (retrieved 44 minutes ago)

CYHM 240100Z 20004KT 15SM FEW045 19/09 A2987 RMK SC1 SC TR VIA CYXU SLP116 DENSITY ALT 1500FT

Closest aviation forecast (TAF) to Selkirk Airport

Closest forecast is Niagara District Airport, 42.2 nm (78.2 km) ENE.

2024/05/23 20:00 (retrieved 6 hours ago)

TAF CYSN 231940Z 2320/2401 23012G22KT P6SM FEW060 SCT230 BECMG 2322/2324 22012KT RMK NXT FCST BY 241300Z